createdAt,value
2018-11-04T00:00:17.681Z,1.10
2018-11-04T00:02:47.210Z,1.00
2018-11-04T00:05:16.590Z,1.00
2018-11-04T00:07:46.649Z,1.00
2018-11-04T00:10:15.577Z,1.00
2018-11-04T00:12:44.573Z,0.90
2018-11-04T00:15:13.538Z,0.90
2018-11-04T00:17:42.481Z,1.00
2018-11-04T00:20:13.035Z,1.00
2018-11-04T00:22:42.102Z,1.00
2018-11-04T00:25:12.730Z,1.00
2018-11-04T00:27:41.914Z,1.00
2018-11-04T00:30:15.315Z,1.00
2018-11-04T00:32:44.626Z,1.00
2018-11-04T00:35:13.738Z,1.00
2018-11-04T00:37:42.840Z,1.00
2018-11-04T00:40:11.868Z,1.00
2018-11-04T00:42:41.159Z,0.90
2018-11-04T00:45:10.471Z,0.90
2018-11-04T00:47:39.976Z,0.90
2018-11-04T00:50:11.449Z,0.90
2018-11-04T00:52:40.616Z,0.90
2018-11-04T00:55:10.374Z,0.90
2018-11-04T00:57:39.496Z,1.00
2018-11-04T01:00:13.571Z,0.90
2018-11-04T01:02:43.190Z,0.90
2018-11-04T01:05:12.176Z,0.90
2018-11-04T01:07:41.127Z,0.90
2018-11-04T01:10:11.052Z,0.90
2018-11-04T01:12:40.552Z,0.90
2018-11-04T01:15:10.982Z,0.90
2018-11-04T01:17:40.270Z,0.90
2018-11-04T01:20:11.611Z,0.90
2018-11-04T01:22:40.722Z,0.90
2018-11-04T01:25:10.134Z,0.90
2018-11-04T01:27:39.309Z,0.90
2018-11-04T01:30:10.516Z,0.90
2018-11-04T01:32:39.462Z,0.80
2018-11-04T01:35:08.766Z,0.90
2018-11-04T01:37:37.969Z,0.80
2018-11-04T01:40:07.825Z,0.90
2018-11-04T01:42:37.158Z,0.90
2018-11-04T01:45:07.235Z,0.80
2018-11-04T01:47:36.557Z,0.80
2018-11-04T01:50:07.648Z,0.80
2018-11-04T01:52:36.939Z,0.80
2018-11-04T01:55:06.697Z,0.80
2018-11-04T01:57:36.031Z,0.80
2018-11-04T02:00:07.319Z,0.80
2018-11-04T02:02:36.285Z,0.80
2018-11-04T02:05:06.123Z,0.80
2018-11-04T02:07:35.223Z,0.90
2018-11-04T02:10:04.359Z,0.90
2018-11-04T02:12:33.309Z,0.90
2018-11-04T02:15:02.298Z,0.90
2018-11-04T02:17:31.314Z,0.90
2018-11-04T02:20:00.497Z,0.90
2018-11-04T02:22:29.588Z,0.90
2018-11-04T02:24:58.700Z,0.90
2018-11-04T02:27:27.810Z,0.90
2018-11-04T02:29:57.290Z,0.80
2018-11-04T02:32:26.254Z,0.80
2018-11-04T02:34:55.252Z,0.80
2018-11-04T02:37:24.259Z,0.70
2018-11-04T02:39:53.226Z,0.70
2018-11-04T02:42:22.222Z,0.70
2018-11-04T02:44:51.230Z,0.70
2018-11-04T02:47:20.225Z,0.70
2018-11-04T02:49:49.218Z,0.70
2018-11-04T02:52:18.416Z,0.70
2018-11-04T02:54:47.420Z,0.70
2018-11-04T02:57:16.438Z,0.70
2018-11-04T02:59:45.408Z,0.70
2018-11-04T03:02:14.406Z,0.60
2018-11-04T03:04:43.418Z,0.60
2018-11-04T03:07:12.626Z,0.60
2018-11-04T03:09:41.775Z,0.70
2018-11-04T03:12:10.782Z,0.70
2018-11-04T03:14:39.791Z,0.60
2018-11-04T03:17:08.793Z,0.70
2018-11-04T03:19:37.866Z,0.60
2018-11-04T03:22:07.258Z,0.60
2018-11-04T03:24:36.282Z,0.60
2018-11-04T03:27:05.245Z,0.60
2018-11-04T03:29:34.234Z,0.60
2018-11-04T03:32:04.261Z,0.60
2018-11-04T03:34:33.301Z,0.60
2018-11-04T03:37:02.468Z,0.60
2018-11-04T03:39:31.435Z,0.60
2018-11-04T03:42:00.416Z,0.50
2018-11-04T03:44:29.367Z,0.50
2018-11-04T03:46:58.361Z,0.50
2018-11-04T03:49:27.370Z,0.50
2018-11-04T03:51:56.475Z,0.40
2018-11-04T03:54:25.601Z,0.40
2018-11-04T03:56:54.614Z,0.40
2018-11-04T03:59:23.627Z,0.40
2018-11-04T04:01:52.807Z,0.40
2018-11-04T04:04:21.804Z,0.40
2018-11-04T04:06:50.773Z,0.40
2018-11-04T04:09:20.109Z,0.40
2018-11-04T04:11:49.067Z,0.50
2018-11-04T04:14:18.000Z,0.50
2018-11-04T04:16:47.078Z,0.60
2018-11-04T04:19:16.166Z,0.70
2018-11-04T04:21:45.135Z,0.70
2018-11-04T04:24:14.132Z,0.70
2018-11-04T04:26:43.077Z,0.80
2018-11-04T04:29:12.153Z,0.80
2018-11-04T04:31:41.117Z,0.80
2018-11-04T04:34:10.149Z,0.80
2018-11-04T04:36:39.095Z,0.80
2018-11-04T04:39:08.945Z,0.80
2018-11-04T04:41:38.050Z,0.80
2018-11-04T04:44:07.466Z,0.80
2018-11-04T04:46:36.534Z,0.80
2018-11-04T04:49:05.577Z,0.80
2018-11-04T04:51:34.769Z,0.70
2018-11-04T04:54:03.939Z,0.60
2018-11-04T04:56:33.061Z,0.60
2018-11-04T04:59:02.015Z,0.60
2018-11-04T05:01:30.977Z,0.50
2018-11-04T05:03:59.916Z,0.50
2018-11-04T05:06:28.867Z,0.50
2018-11-04T05:08:57.893Z,0.50
2018-11-04T05:11:26.858Z,0.50
2018-11-04T05:13:55.837Z,0.40
2018-11-04T05:16:24.877Z,0.50
2018-11-04T05:18:53.865Z,0.40
2018-11-04T05:21:22.809Z,0.40
2018-11-04T05:23:51.896Z,0.50
2018-11-04T05:26:21.001Z,0.50
2018-11-04T05:28:50.100Z,0.60
2018-11-04T05:31:19.113Z,0.60
2018-11-04T05:33:48.113Z,0.70
2018-11-04T05:36:17.111Z,0.70
2018-11-04T05:38:46.139Z,0.70
2018-11-04T05:41:15.120Z,0.80
2018-11-04T05:43:44.047Z,0.80
2018-11-04T05:46:13.418Z,0.80
2018-11-04T05:48:42.362Z,0.80
2018-11-04T05:51:11.621Z,0.80
2018-11-04T05:53:41.333Z,0.80
2018-11-04T05:56:10.705Z,0.80
2018-11-04T05:58:39.691Z,0.90
2018-11-04T06:01:08.657Z,0.90
2018-11-04T06:03:37.606Z,0.90
2018-11-04T06:06:06.685Z,1.00
2018-11-04T06:08:35.626Z,1.00
2018-11-04T06:11:04.626Z,1.00
2018-11-04T06:13:33.649Z,1.00
2018-11-04T06:16:02.606Z,1.00
2018-11-04T06:18:31.534Z,1.10
2018-11-04T06:21:00.505Z,1.10
2018-11-04T06:23:29.462Z,1.10
2018-11-04T06:25:58.450Z,1.10
2018-11-04T06:28:27.397Z,1.10
2018-11-04T06:30:56.410Z,1.10
2018-11-04T06:33:25.422Z,1.20
2018-11-04T06:35:54.396Z,1.20
2018-11-04T06:38:23.382Z,1.30
2018-11-04T06:40:52.369Z,1.30
2018-11-04T06:43:21.305Z,1.40
2018-11-04T06:45:50.265Z,1.40
2018-11-04T06:48:19.247Z,1.50
2018-11-04T06:50:48.250Z,1.50
2018-11-04T06:53:17.225Z,1.60
2018-11-04T06:55:46.187Z,1.60
2018-11-04T06:58:15.119Z,1.60
2018-11-04T07:00:44.120Z,1.70
2018-11-04T07:03:13.114Z,1.70
2018-11-04T07:05:42.051Z,1.70
2018-11-04T07:08:11.014Z,1.80
2018-11-04T07:10:39.959Z,1.90
2018-11-04T07:13:09.076Z,1.90
2018-11-04T07:15:38.058Z,2.00
2018-11-04T07:18:07.053Z,2.10
2018-11-04T07:20:36.117Z,2.20
2018-11-04T07:23:05.712Z,2.20
2018-11-04T07:25:34.723Z,2.30
2018-11-04T07:28:04.885Z,2.40
2018-11-04T07:30:33.939Z,2.50
2018-11-04T07:33:03.130Z,2.60
2018-11-04T07:35:32.213Z,2.60
2018-11-04T07:38:01.371Z,2.70
2018-11-04T07:40:30.373Z,2.80
2018-11-04T07:42:59.337Z,2.90
2018-11-04T07:45:28.394Z,3.00
2018-11-04T07:47:57.372Z,3.10
2018-11-04T07:50:26.402Z,3.10
2018-11-04T07:52:55.347Z,3.20
2018-11-04T07:55:24.617Z,3.30
2018-11-04T07:57:54.674Z,3.40
2018-11-04T08:00:24.726Z,3.40
2018-11-04T08:02:53.816Z,3.50
2018-11-04T08:05:23.000Z,3.60
2018-11-04T08:07:51.970Z,3.70
2018-11-04T08:10:20.996Z,3.70
2018-11-04T08:12:50.010Z,3.80
2018-11-04T08:15:18.922Z,3.80
2018-11-04T08:17:49.091Z,4.00
2018-11-04T08:20:18.066Z,4.00
2018-11-04T08:22:47.533Z,4.10
2018-11-04T08:25:16.731Z,4.20
2018-11-04T08:27:45.994Z,4.30
2018-11-04T08:30:15.979Z,4.30
2018-11-04T08:32:45.154Z,4.50
2018-11-04T08:35:15.069Z,4.50
2018-11-04T08:37:44.457Z,4.60
2018-11-04T08:40:13.600Z,4.60
2018-11-04T08:42:42.499Z,4.80
2018-11-04T08:45:11.476Z,4.90
2018-11-04T08:47:40.469Z,4.90
2018-11-04T08:50:10.046Z,5.00
2018-11-04T08:52:39.368Z,5.10
2018-11-04T08:55:09.367Z,5.10
2018-11-04T08:57:38.628Z,5.20
2018-11-04T09:00:09.532Z,5.30
2018-11-04T09:02:38.626Z,5.50
2018-11-04T09:05:09.054Z,5.60
2018-11-04T09:07:38.411Z,5.60
2018-11-04T09:10:10.706Z,5.70
2018-11-04T09:12:39.781Z,5.70
2018-11-04T09:15:10.001Z,5.90
2018-11-04T09:17:39.072Z,6.00
2018-11-04T09:20:10.427Z,6.00
2018-11-04T09:22:39.783Z,6.10
2018-11-04T09:25:10.218Z,6.20
2018-11-04T09:27:39.228Z,6.30
2018-11-04T09:30:11.224Z,6.30
2018-11-04T09:32:40.300Z,6.40
2018-11-04T09:35:10.317Z,6.50
2018-11-04T09:37:38.977Z,6.60
2018-11-04T09:40:09.329Z,6.70
2018-11-04T09:42:38.297Z,6.80
2018-11-04T09:45:07.669Z,6.80
2018-11-04T09:47:36.751Z,6.90
2018-11-04T09:50:07.360Z,7.00
2018-11-04T09:52:36.234Z,7.10
2018-11-04T09:55:05.995Z,7.20
2018-11-04T09:57:35.036Z,7.30
2018-11-04T10:00:04.058Z,7.40
2018-11-04T10:02:33.059Z,7.50
2018-11-04T10:05:02.385Z,7.60
2018-11-04T10:07:31.522Z,7.70
2018-11-04T10:10:00.481Z,7.80
2018-11-04T10:12:29.452Z,7.90
2018-11-04T10:14:58.594Z,8.00
2018-11-04T10:17:27.939Z,8.10
2018-11-04T10:19:57.310Z,8.20
2018-11-04T10:22:26.009Z,8.20
2018-11-04T10:24:54.974Z,8.30
2018-11-04T10:27:23.997Z,8.40
2018-11-04T10:29:52.958Z,8.50
2018-11-04T10:32:21.997Z,8.70
2018-11-04T10:34:50.954Z,8.80
2018-11-04T10:37:19.987Z,8.80
2018-11-04T10:39:48.853Z,8.90
2018-11-04T10:42:17.872Z,9.00
2018-11-04T10:44:46.849Z,9.00
2018-11-04T10:47:16.910Z,9.10
2018-11-04T10:49:47.209Z,9.10
2018-11-04T10:52:16.817Z,9.20
2018-11-04T10:54:45.939Z,9.30
2018-11-04T10:57:15.497Z,9.30
2018-11-04T10:59:44.488Z,9.40
2018-11-04T11:02:13.929Z,9.50
2018-11-04T11:04:43.160Z,9.50
2018-11-04T11:07:12.316Z,9.50
2018-11-04T11:09:41.928Z,9.60
2018-11-04T11:12:11.661Z,9.70
2018-11-04T11:14:41.325Z,9.80
2018-11-04T11:17:10.382Z,9.90
2018-11-04T11:19:39.575Z,10.00
2018-11-04T11:22:08.767Z,10.00
2018-11-04T11:24:38.032Z,10.10
2018-11-04T11:27:07.146Z,10.20
2018-11-04T11:29:36.216Z,10.30
2018-11-04T11:32:05.352Z,10.40
2018-11-04T11:34:35.438Z,10.50
2018-11-04T11:37:04.496Z,10.50
2018-11-04T11:39:33.481Z,10.60
2018-11-04T11:42:02.646Z,10.70
2018-11-04T11:44:31.610Z,10.70
2018-11-04T11:47:00.557Z,10.80
2018-11-04T11:49:29.555Z,10.90
2018-11-04T11:51:59.734Z,11.00
2018-11-04T11:54:28.882Z,11.20
2018-11-04T11:56:57.921Z,11.30
2018-11-04T11:59:27.163Z,11.40
2018-11-04T12:01:56.130Z,11.50
2018-11-04T12:04:25.255Z,11.60
2018-11-04T12:06:54.262Z,11.60
2018-11-04T12:09:23.248Z,11.50
2018-11-04T12:11:52.201Z,11.60
2018-11-04T12:14:21.329Z,11.60
2018-11-04T12:16:50.369Z,11.70
2018-11-04T12:19:20.375Z,11.80
2018-11-04T12:21:50.378Z,11.80
2018-11-04T12:24:19.470Z,11.90
2018-11-04T12:26:48.401Z,11.90
2018-11-04T12:29:17.622Z,12.00
2018-11-04T12:31:46.765Z,12.00
2018-11-04T12:34:15.710Z,12.10
2018-11-04T12:36:45.005Z,12.20
2018-11-04T12:39:14.243Z,12.20
2018-11-04T12:41:43.230Z,12.30
2018-11-04T12:44:12.230Z,12.40
2018-11-04T12:46:41.990Z,12.50
2018-11-04T12:49:11.172Z,12.60
2018-11-04T12:51:40.129Z,12.70
2018-11-04T12:54:09.082Z,12.70
2018-11-04T12:56:38.194Z,12.90
2018-11-04T12:59:07.322Z,12.90
2018-11-04T13:01:36.486Z,13.00
2018-11-04T13:04:05.481Z,13.00
2018-11-04T13:06:35.512Z,12.90
2018-11-04T13:09:06.780Z,13.00
2018-11-04T13:11:36.369Z,13.00
2018-11-04T13:14:05.519Z,13.10
2018-11-04T13:16:34.517Z,13.10
2018-11-04T13:19:03.625Z,13.20
2018-11-04T13:21:33.592Z,13.20
2018-11-04T13:24:02.633Z,13.10
2018-11-04T13:26:31.762Z,13.10
2018-11-04T13:29:00.783Z,13.10
2018-11-04T13:31:29.749Z,13.10
2018-11-04T13:33:58.771Z,13.10
2018-11-04T13:36:27.753Z,13.10
2018-11-04T13:38:56.760Z,13.20
2018-11-04T13:41:25.721Z,13.20
2018-11-04T13:43:54.718Z,13.20
2018-11-04T13:46:23.789Z,13.20
2018-11-04T13:48:52.935Z,13.20
2018-11-04T13:51:22.066Z,13.20
2018-11-04T13:53:51.006Z,13.20
2018-11-04T13:56:21.551Z,13.20
2018-11-04T13:58:51.686Z,13.20
2018-11-04T14:01:20.958Z,13.30
2018-11-04T14:03:50.027Z,13.20
2018-11-04T14:06:19.198Z,13.10
2018-11-04T14:08:48.354Z,13.00
2018-11-04T14:11:17.344Z,13.00
2018-11-04T14:13:46.311Z,13.00
2018-11-04T14:16:15.325Z,13.00
2018-11-04T14:18:44.365Z,13.00
2018-11-04T14:21:13.529Z,12.90
2018-11-04T14:23:42.566Z,13.00
2018-11-04T14:26:11.574Z,12.90
2018-11-04T14:28:40.880Z,12.80
2018-11-04T14:31:10.085Z,12.70
2018-11-04T14:33:39.173Z,12.70
2018-11-04T14:36:08.261Z,12.60
2018-11-04T14:38:37.237Z,12.60
2018-11-04T14:41:06.873Z,12.70
2018-11-04T14:43:36.010Z,12.70
2018-11-04T14:46:05.020Z,12.60
2018-11-04T14:48:33.985Z,12.60
2018-11-04T14:51:02.932Z,12.50
2018-11-04T14:53:31.861Z,12.50
2018-11-04T14:56:01.947Z,12.40
2018-11-04T14:58:31.062Z,12.40
2018-11-04T15:01:00.198Z,12.40
2018-11-04T15:03:29.286Z,12.40
2018-11-04T15:05:58.369Z,12.40
2018-11-04T15:08:28.542Z,12.40
2018-11-04T15:10:57.670Z,12.40
2018-11-04T15:13:26.853Z,12.30
2018-11-04T15:15:55.985Z,12.20
2018-11-04T15:18:25.225Z,12.20
2018-11-04T15:20:54.187Z,12.10
2018-11-04T15:23:23.498Z,12.10
2018-11-04T15:25:52.578Z,12.10
2018-11-04T15:28:21.650Z,12.10
2018-11-04T15:30:51.093Z,12.10
2018-11-04T15:33:20.083Z,12.00
2018-11-04T15:35:49.190Z,12.10
2018-11-04T15:38:18.165Z,12.10
2018-11-04T15:40:47.414Z,12.00
2018-11-04T15:43:16.627Z,12.00
2018-11-04T15:45:45.570Z,12.00
2018-11-04T15:48:14.573Z,12.00
2018-11-04T15:50:43.658Z,11.90
2018-11-04T15:53:12.819Z,11.90
2018-11-04T15:55:41.994Z,11.90
2018-11-04T15:58:11.208Z,11.80
2018-11-04T16:00:40.281Z,11.70
2018-11-04T16:03:09.502Z,11.70
2018-11-04T16:05:38.784Z,11.60
2018-11-04T16:08:07.845Z,11.60
2018-11-04T16:10:36.862Z,11.60
2018-11-04T16:13:06.084Z,11.70
2018-11-04T16:15:35.363Z,11.60
2018-11-04T16:18:04.740Z,11.60
2018-11-04T16:20:33.841Z,11.60
2018-11-04T16:23:04.197Z,11.60
2018-11-04T16:25:33.235Z,11.60
2018-11-04T16:28:02.175Z,11.50
2018-11-04T16:30:31.149Z,11.50
2018-11-04T16:33:00.189Z,11.50
2018-11-04T16:35:29.152Z,11.40
2018-11-04T16:37:58.367Z,11.40
2018-11-04T16:40:28.355Z,11.40
2018-11-04T16:42:57.490Z,11.30
2018-11-04T16:45:26.670Z,11.30
2018-11-04T16:47:55.696Z,11.20
2018-11-04T16:50:24.774Z,11.20
2018-11-04T16:52:53.745Z,11.20
2018-11-04T16:55:22.969Z,11.10
2018-11-04T16:57:52.137Z,11.10
2018-11-04T17:00:21.222Z,11.10
2018-11-04T17:02:51.333Z,11.10
2018-11-04T17:05:20.383Z,11.00
2018-11-04T17:07:49.450Z,10.90
2018-11-04T17:10:18.607Z,10.90
2018-11-04T17:12:47.905Z,10.90
2018-11-04T17:15:16.974Z,11.00
2018-11-04T17:17:46.063Z,10.90
2018-11-04T17:20:17.662Z,10.90
2018-11-04T17:22:46.939Z,10.80
2018-11-04T17:25:15.997Z,10.80
2018-11-04T17:27:45.246Z,10.80
2018-11-04T17:30:15.992Z,10.80
2018-11-04T17:32:45.259Z,10.80
2018-11-04T17:35:15.139Z,10.80
2018-11-04T17:37:44.665Z,10.80
2018-11-04T17:40:14.627Z,10.70
2018-11-04T17:42:44.513Z,10.70
2018-11-04T17:45:14.893Z,10.70
2018-11-04T17:47:44.091Z,10.70
2018-11-04T17:50:16.531Z,10.70
2018-11-04T17:52:45.750Z,10.70
2018-11-04T17:55:14.959Z,10.70
2018-11-04T17:57:46.017Z,10.70
2018-11-04T18:00:16.229Z,10.70
2018-11-04T18:02:46.310Z,10.60
2018-11-04T18:05:15.419Z,10.60
2018-11-04T18:07:44.717Z,10.60
2018-11-04T18:10:14.606Z,10.60
2018-11-04T18:12:43.919Z,10.60
2018-11-04T18:15:14.788Z,10.60
2018-11-04T18:17:43.961Z,10.50
2018-11-04T18:20:13.242Z,10.50
2018-11-04T18:22:42.359Z,10.50
2018-11-04T18:25:12.164Z,10.40
2018-11-04T18:27:41.213Z,10.40
2018-11-04T18:30:12.315Z,10.50
2018-11-04T18:32:41.450Z,10.50
2018-11-04T18:35:10.978Z,10.40
2018-11-04T18:37:40.161Z,10.40
2018-11-04T18:40:11.437Z,10.40
2018-11-04T18:42:40.535Z,10.30
2018-11-04T18:45:10.742Z,10.10
2018-11-04T18:47:39.890Z,10.10
2018-11-04T18:50:09.839Z,10.00
2018-11-04T18:52:39.071Z,10.00
2018-11-04T18:55:08.946Z,9.90
2018-11-04T18:57:38.024Z,9.80
2018-11-04T19:00:08.834Z,9.80
2018-11-04T19:02:37.858Z,9.70
2018-11-04T19:05:07.303Z,9.60
2018-11-04T19:07:36.554Z,9.60
2018-11-04T19:10:07.274Z,9.50
2018-11-04T19:12:36.299Z,9.40
2018-11-04T19:15:05.549Z,9.30
2018-11-04T19:17:34.551Z,9.30
2018-11-04T19:20:03.806Z,9.20
2018-11-04T19:22:32.838Z,9.20
2018-11-04T19:25:01.912Z,9.10
2018-11-04T19:27:30.862Z,9.10
2018-11-04T19:29:59.868Z,9.10
2018-11-04T19:32:28.895Z,9.10
2018-11-04T19:34:57.970Z,9.10
2018-11-04T19:37:27.174Z,9.10
2018-11-04T19:39:56.134Z,9.10
2018-11-04T19:42:25.172Z,9.10
2018-11-04T19:44:54.070Z,9.00
2018-11-04T19:47:23.087Z,9.00
2018-11-04T19:49:52.105Z,8.90
2018-11-04T19:52:21.213Z,8.90
2018-11-04T19:54:50.206Z,8.80
2018-11-04T19:57:19.231Z,8.70
2018-11-04T19:59:48.211Z,8.60
2018-11-04T20:02:17.158Z,8.70
2018-11-04T20:04:46.250Z,8.60
2018-11-04T20:07:15.336Z,8.40
2018-11-04T20:09:44.498Z,8.30
2018-11-04T20:12:19.054Z,8.30
2018-11-04T20:14:48.002Z,8.20
2018-11-04T20:17:16.992Z,8.10
2018-11-04T20:19:51.270Z,8.00
2018-11-04T20:22:20.202Z,7.90
2018-11-04T20:24:54.670Z,7.80
2018-11-04T20:27:23.639Z,7.80
2018-11-04T20:29:52.600Z,7.70
2018-11-04T20:32:27.182Z,7.60
2018-11-04T20:34:56.288Z,7.60
2018-11-04T20:37:25.334Z,7.50
2018-11-04T20:39:59.693Z,7.50
2018-11-04T20:42:28.823Z,7.50
2018-11-04T20:44:57.974Z,7.40
2018-11-04T20:47:32.430Z,7.30
2018-11-04T20:50:06.848Z,7.30
2018-11-04T20:52:35.863Z,7.30
2018-11-04T20:55:06.268Z,7.20
2018-11-04T20:57:40.158Z,7.20
2018-11-04T21:00:11.449Z,7.10
2018-11-04T21:02:40.648Z,7.10
2018-11-04T21:05:09.381Z,7.00
2018-11-04T21:07:38.442Z,7.00
2018-11-04T21:10:08.912Z,6.90
2018-11-04T21:12:38.033Z,6.90
2018-11-04T21:15:07.131Z,6.80
2018-11-04T21:17:37.165Z,6.80
2018-11-04T21:20:07.182Z,6.70
2018-11-04T21:22:36.157Z,6.60
2018-11-04T21:25:05.949Z,6.60
2018-11-04T21:27:35.013Z,6.50
2018-11-04T21:30:04.946Z,6.50
2018-11-04T21:32:33.876Z,6.50
2018-11-04T21:35:03.095Z,6.40
2018-11-04T21:37:32.086Z,6.40
2018-11-04T21:40:00.963Z,6.30
2018-11-04T21:42:30.154Z,6.30
2018-11-04T21:44:58.942Z,6.20
2018-11-04T21:47:27.882Z,6.20
2018-11-04T21:49:56.950Z,6.30
2018-11-04T21:52:25.878Z,6.30
2018-11-04T21:54:54.847Z,6.30
2018-11-04T21:57:23.798Z,6.30
2018-11-04T21:59:52.798Z,6.50
2018-11-04T22:02:22.958Z,6.50
2018-11-04T22:04:52.131Z,6.40
2018-11-04T22:07:20.915Z,6.40
2018-11-04T22:09:49.905Z,6.40
2018-11-04T22:12:18.906Z,6.30
2018-11-04T22:14:47.878Z,6.30
2018-11-04T22:17:16.933Z,6.20
2018-11-04T22:19:45.898Z,6.20
2018-11-04T22:22:15.153Z,6.10
2018-11-04T22:24:44.230Z,6.10
2018-11-04T22:27:13.317Z,6.10
2018-11-04T22:29:42.423Z,6.10
2018-11-04T22:32:11.525Z,6.00
2018-11-04T22:34:40.622Z,6.00
2018-11-04T22:37:09.719Z,6.20
2018-11-04T22:39:38.711Z,6.30
2018-11-04T22:42:07.725Z,6.50
2018-11-04T22:44:36.609Z,6.50
2018-11-04T22:47:05.710Z,6.50
2018-11-04T22:49:34.686Z,6.50
2018-11-04T22:52:03.611Z,6.60
2018-11-04T22:54:32.621Z,6.60
2018-11-04T22:57:01.647Z,6.60
2018-11-04T22:59:30.667Z,6.60
2018-11-04T23:01:59.671Z,6.60
2018-11-04T23:04:33.958Z,6.60
2018-11-04T23:07:03.003Z,6.50
2018-11-04T23:09:32.026Z,6.50
2018-11-04T23:12:00.974Z,6.40
2018-11-04T23:14:29.925Z,6.30
2018-11-04T23:17:00.003Z,6.30
2018-11-04T23:19:28.980Z,6.20
2018-11-04T23:21:57.958Z,6.30
2018-11-04T23:24:26.940Z,6.40
2018-11-04T23:26:55.959Z,6.60
2018-11-04T23:29:24.870Z,6.60
2018-11-04T23:31:53.862Z,6.60
2018-11-04T23:34:22.846Z,6.50
2018-11-04T23:36:51.859Z,6.40
2018-11-04T23:39:20.825Z,6.40
2018-11-04T23:41:49.851Z,6.40
2018-11-04T23:44:18.822Z,6.50
2018-11-04T23:46:47.766Z,6.60
2018-11-04T23:49:16.742Z,6.60
2018-11-04T23:51:45.672Z,6.70
2018-11-04T23:54:14.682Z,6.80
2018-11-04T23:56:43.658Z,6.80
2018-11-04T23:59:12.632Z,6.80
